createdAt,value
2022-09-27T00:00:15.190Z,43.10
2022-09-27T00:02:55.541Z,43.83
2022-09-27T00:05:26.289Z,42.47
2022-09-27T00:07:53.311Z,46.45
2022-09-27T00:10:20.927Z,41.08
2022-09-27T00:12:52.307Z,44.08
2022-09-27T00:15:22.330Z,48.60
2022-09-27T00:17:59.213Z,46.38
2022-09-27T00:20:54.231Z,49.78
2022-09-27T00:23:21.458Z,48.65
2022-09-27T00:26:00.593Z,49.72
2022-09-27T00:28:28.290Z,45.60
2022-09-27T00:30:55.491Z,43.17
2022-09-27T00:33:26.300Z,44.40
2022-09-27T00:35:54.208Z,46.72
2022-09-27T00:38:21.608Z,42.00
2022-09-27T00:40:49.522Z,46.35
2022-09-27T00:43:23.340Z,38.92
2022-09-27T00:45:58.887Z,37.58
2022-09-27T00:48:34.048Z,39.67
2022-09-27T00:51:16.765Z,44.92
2022-09-27T00:53:51.564Z,40.15
2022-09-27T00:56:25.413Z,41.97
2022-09-27T00:59:04.287Z,45.38
2022-09-27T01:01:31.694Z,40.63
2022-09-27T01:06:52.957Z,46.00
2022-09-27T01:09:23.139Z,37.70
2022-09-27T01:11:58.146Z,44.15
2022-09-27T01:14:44.945Z,38.20
2022-09-27T01:17:52.561Z,45.80
2022-09-27T01:20:23.257Z,42.47
2022-09-27T01:23:26.322Z,36.60
2022-09-27T01:27:09.885Z,42.22
2022-09-27T01:30:43.371Z,38.45
2022-09-27T01:33:46.139Z,43.97
2022-09-27T01:36:58.101Z,38.40
2022-09-27T01:39:47.000Z,36.17
2022-09-27T01:42:50.882Z,33.42
2022-09-27T01:45:26.409Z,34.05
2022-09-27T01:48:38.191Z,34.33
2022-09-27T01:51:22.678Z,34.30
2022-09-27T01:53:53.818Z,33.23
2022-09-27T01:56:47.470Z,35.38
2022-09-27T01:59:37.168Z,40.67
2022-09-27T02:03:10.237Z,34.92
2022-09-27T02:05:46.719Z,35.85
2022-09-27T02:08:53.401Z,34.30
2022-09-27T02:11:43.700Z,35.37
2022-09-27T02:17:00.144Z,35.13
2022-09-27T02:20:30.977Z,42.17
2022-09-27T02:23:33.226Z,35.55
2022-09-27T02:26:38.295Z,36.33
2022-09-27T02:29:22.446Z,33.10
2022-09-27T02:31:55.405Z,36.20
2022-09-27T02:34:25.223Z,35.90
2022-09-27T02:36:53.549Z,38.50
2022-09-27T02:39:21.429Z,44.95
2022-09-27T02:44:48.137Z,36.75
2022-09-27T02:47:25.524Z,34.40
2022-09-27T02:50:04.215Z,38.78
2022-09-27T02:57:23.477Z,33.50
2022-09-27T03:00:32.378Z,34.45
2022-09-27T03:03:44.075Z,35.90
2022-09-27T03:06:14.008Z,40.50
2022-09-27T03:08:59.497Z,43.45
2022-09-27T03:11:27.519Z,39.40
2022-09-27T03:14:08.351Z,37.47
2022-09-27T03:16:56.709Z,37.75
2022-09-27T03:19:52.801Z,39.63
2022-09-27T03:22:57.228Z,36.47
2022-09-27T03:25:26.456Z,36.58
2022-09-27T03:27:54.548Z,37.78
2022-09-27T03:30:22.207Z,37.78
2022-09-27T03:32:50.648Z,36.20
2022-09-27T03:35:57.543Z,37.25
2022-09-27T03:38:24.601Z,35.97
2022-09-27T03:40:57.576Z,39.88
2022-09-27T03:43:27.854Z,36.80
2022-09-27T03:45:59.007Z,40.88
2022-09-27T03:48:28.240Z,38.25
2022-09-27T03:50:56.292Z,35.03
2022-09-27T03:53:26.004Z,38.58
2022-09-27T03:55:53.742Z,34.67
2022-09-27T03:58:20.835Z,35.67
2022-09-27T04:00:48.206Z,33.67
2022-09-27T04:03:27.181Z,33.22
2022-09-27T04:06:20.238Z,38.78
2022-09-27T04:08:47.590Z,33.50
2022-09-27T04:11:15.801Z,32.45
2022-09-27T04:13:49.069Z,33.28
2022-09-27T04:16:17.618Z,32.97
2022-09-27T04:18:54.908Z,35.00
2022-09-27T04:21:40.956Z,35.97
2022-09-27T04:24:11.930Z,36.17
2022-09-27T04:26:46.068Z,38.50
2022-09-27T04:29:15.977Z,37.40
2022-09-27T04:31:49.441Z,40.65
2022-09-27T04:34:46.197Z,38.72
2022-09-27T04:37:30.361Z,47.08
2022-09-27T04:40:03.093Z,40.88
2022-09-27T04:42:31.113Z,46.58
2022-09-27T04:44:58.149Z,50.88
2022-09-27T04:47:31.230Z,41.20
2022-09-27T04:50:01.383Z,47.63
2022-09-27T04:52:28.557Z,45.65
2022-09-27T04:54:55.849Z,52.28
2022-09-27T04:57:26.832Z,47.47
2022-09-27T04:59:54.557Z,56.03
2022-09-27T05:02:21.848Z,43.28
2022-09-27T05:05:13.121Z,42.08
2022-09-27T05:07:44.522Z,47.15
2022-09-27T05:10:31.838Z,42.30
2022-09-27T05:13:00.542Z,40.83
2022-09-27T05:15:28.124Z,42.40
2022-09-27T05:18:17.686Z,56.72
2022-09-27T05:21:14.266Z,42.83
2022-09-27T05:23:47.852Z,45.13
2022-09-27T05:26:17.605Z,45.35
2022-09-27T05:28:47.432Z,53.65
2022-09-27T05:31:23.472Z,50.55
2022-09-27T05:33:51.014Z,49.70
2022-09-27T05:36:41.605Z,43.20
2022-09-27T05:39:08.917Z,45.75
2022-09-27T05:41:37.727Z,45.97
2022-09-27T05:44:06.030Z,48.63
2022-09-27T05:46:42.432Z,47.75
2022-09-27T05:49:10.289Z,46.05
2022-09-27T05:51:38.828Z,47.30
2022-09-27T05:54:29.778Z,43.55
2022-09-27T05:56:59.326Z,45.65
2022-09-27T05:59:46.020Z,45.40
2022-09-27T06:02:26.282Z,42.00
2022-09-27T06:05:25.318Z,42.45
2022-09-27T06:08:23.721Z,37.75
2022-09-27T06:11:16.232Z,34.30
2022-09-27T06:15:00.210Z,30.02
2022-09-27T06:17:54.089Z,126.68
2022-09-27T06:20:22.420Z,28.33
2022-09-27T06:22:49.995Z,24.27
2022-09-27T06:25:20.429Z,18.88
2022-09-27T06:28:01.425Z,17.73
2022-09-27T06:30:29.955Z,18.33
2022-09-27T06:33:01.911Z,19.92
2022-09-27T06:35:36.542Z,21.27
2022-09-27T06:38:04.773Z,13.70
2022-09-27T06:40:32.526Z,16.02
2022-09-27T06:43:22.548Z,14.43
2022-09-27T06:46:09.734Z,14.38
2022-09-27T06:48:56.623Z,26.80
2022-09-27T06:51:23.429Z,13.75
2022-09-27T06:53:50.304Z,19.98
2022-09-27T06:56:17.073Z,17.65
2022-09-27T06:59:11.778Z,15.32
2022-09-27T07:01:45.867Z,16.45
2022-09-27T07:04:32.105Z,17.60
2022-09-27T07:07:30.954Z,17.98
2022-09-27T07:09:58.524Z,13.23
2022-09-27T07:12:28.275Z,14.80
2022-09-27T07:14:55.659Z,19.23
2022-09-27T07:17:23.573Z,18.02
2022-09-27T07:19:51.571Z,16.42
2022-09-27T07:22:18.510Z,17.48
2022-09-27T07:24:52.873Z,21.65
2022-09-27T07:27:22.185Z,15.52
2022-09-27T07:29:49.245Z,18.80
2022-09-27T07:32:17.316Z,16.98
2022-09-27T07:34:44.845Z,17.23
2022-09-27T07:37:13.374Z,17.05
2022-09-27T07:39:41.160Z,18.35
2022-09-27T07:42:08.257Z,16.45
2022-09-27T07:44:39.241Z,15.50
2022-09-27T07:47:25.052Z,16.60
2022-09-27T07:50:06.210Z,20.80
2022-09-27T07:52:44.526Z,21.95
2022-09-27T07:55:41.076Z,16.85
2022-09-27T07:58:12.111Z,20.63
2022-09-27T08:00:40.924Z,17.00
2022-09-27T08:03:16.103Z,18.67
2022-09-27T08:05:44.386Z,16.77
2022-09-27T08:08:11.432Z,15.45
2022-09-27T08:10:44.095Z,18.50
2022-09-27T08:13:12.386Z,19.45
2022-09-27T08:15:39.659Z,15.40
2022-09-27T08:18:09.661Z,14.98
2022-09-27T08:21:03.254Z,16.55
2022-09-27T08:23:37.097Z,20.67
2022-09-27T08:26:30.365Z,16.42
2022-09-27T08:29:20.118Z,16.45
2022-09-27T08:31:54.304Z,20.00
2022-09-27T08:34:22.955Z,16.33
2022-09-27T08:36:50.290Z,16.08
2022-09-27T08:39:17.596Z,17.20
2022-09-27T08:42:06.051Z,25.67
2022-09-27T08:44:38.965Z,18.58
2022-09-27T08:47:50.300Z,19.65
2022-09-27T08:50:20.548Z,20.25
2022-09-27T08:52:54.260Z,23.70
2022-09-27T08:55:50.460Z,14.60
2022-09-27T08:58:33.929Z,13.98
2022-09-27T09:01:06.442Z,19.48
2022-09-27T09:03:44.405Z,13.70
2022-09-27T09:06:41.663Z,21.55
2022-09-27T09:09:27.668Z,13.07
2022-09-27T09:12:44.413Z,19.33
2022-09-27T09:15:20.373Z,14.93
2022-09-27T09:18:20.549Z,15.15
2022-09-27T09:21:15.490Z,15.35
2022-09-27T09:23:58.748Z,15.35
2022-09-27T09:28:56.325Z,11.45
2022-09-27T09:31:44.473Z,13.93
2022-09-27T09:34:26.863Z,12.98
2022-09-27T09:37:29.707Z,13.05
2022-09-27T09:40:04.316Z,13.45
2022-09-27T09:42:39.111Z,15.65
2022-09-27T09:45:10.154Z,15.10
2022-09-27T09:47:51.788Z,24.88
2022-09-27T09:50:32.818Z,13.43
2022-09-27T09:53:05.107Z,15.25
2022-09-27T09:55:35.505Z,13.73
2022-09-27T09:58:22.125Z,20.45
2022-09-27T10:00:56.340Z,17.23
2022-09-27T10:03:24.444Z,19.90
2022-09-27T10:05:51.602Z,13.13
2022-09-27T10:08:22.853Z,14.68
2022-09-27T10:10:58.658Z,16.08
2022-09-27T10:13:42.435Z,15.23
2022-09-27T10:16:12.025Z,12.18
2022-09-27T10:18:44.066Z,16.40
2022-09-27T10:24:18.370Z,17.25
2022-09-27T10:27:07.365Z,15.40
2022-09-27T10:29:39.194Z,18.60
2022-09-27T10:32:24.638Z,18.08
2022-09-27T10:35:41.736Z,21.08
2022-09-27T10:38:34.889Z,14.55
2022-09-27T10:41:22.912Z,15.60
2022-09-27T10:43:50.364Z,17.27
2022-09-27T10:46:31.981Z,14.90
2022-09-27T10:49:27.158Z,15.65
2022-09-27T10:51:56.801Z,19.98
2022-09-27T10:54:34.470Z,14.98
2022-09-27T10:57:37.327Z,14.73
2022-09-27T11:00:17.412Z,15.10
2022-09-27T11:02:44.643Z,17.33
2022-09-27T11:05:37.757Z,13.63
2022-09-27T11:08:24.036Z,18.15
2022-09-27T11:11:02.728Z,12.57
2022-09-27T11:13:34.489Z,20.27
2022-09-27T11:16:28.407Z,17.15
2022-09-27T11:19:02.019Z,16.45
2022-09-27T11:21:45.378Z,15.18
2022-09-27T11:24:39.999Z,12.85
2022-09-27T11:27:30.919Z,13.73
2022-09-27T11:30:13.254Z,13.93
2022-09-27T11:33:17.883Z,13.20
2022-09-27T11:36:05.479Z,11.07
2022-09-27T11:38:53.279Z,18.27
2022-09-27T11:41:52.189Z,13.10
2022-09-27T11:44:38.372Z,13.45
2022-09-27T11:47:23.640Z,14.10
2022-09-27T11:50:00.003Z,11.35
2022-09-27T11:52:34.325Z,14.85
2022-09-27T11:55:11.573Z,13.25
2022-09-27T11:57:44.082Z,15.02
2022-09-27T12:00:15.626Z,15.93
2022-09-27T12:03:20.214Z,13.50
2022-09-27T12:06:07.852Z,11.65
2022-09-27T12:08:51.323Z,10.32
2022-09-27T12:11:21.965Z,12.70
2022-09-27T12:14:29.879Z,10.73
2022-09-27T12:16:58.917Z,21.02
2022-09-27T12:19:31.299Z,15.30
2022-09-27T12:22:07.530Z,12.40
2022-09-27T12:24:39.412Z,10.60
2022-09-27T12:27:50.217Z,13.32
2022-09-27T12:30:21.806Z,14.15
2022-09-27T12:33:08.730Z,7.78
2022-09-27T12:35:41.653Z,7.50
2022-09-27T12:38:23.397Z,9.02
2022-09-27T12:40:53.786Z,11.25
2022-09-27T12:43:34.813Z,7.45
2022-09-27T12:46:22.780Z,10.73
2022-09-27T12:49:13.193Z,6.93
2022-09-27T12:51:52.559Z,9.02
2022-09-27T12:54:28.829Z,11.25
2022-09-27T12:57:28.049Z,9.98
2022-09-27T13:00:18.914Z,13.10
2022-09-27T13:03:29.890Z,10.68
2022-09-27T13:06:28.350Z,6.80
2022-09-27T13:09:18.542Z,9.13
2022-09-27T13:12:14.647Z,10.15
2022-09-27T13:15:06.932Z,12.35
2022-09-27T13:17:40.507Z,4.75
2022-09-27T13:20:40.196Z,7.40
2022-09-27T13:23:28.909Z,6.00
2022-09-27T13:26:21.884Z,8.13
2022-09-27T13:28:58.301Z,8.02
2022-09-27T13:31:54.117Z,7.80
2022-09-27T13:34:54.882Z,2.30
2022-09-27T13:37:28.873Z,3.65
2022-09-27T13:40:17.807Z,4.68
2022-09-27T13:43:13.424Z,11.02
2022-09-27T13:45:59.512Z,4.78
2022-09-27T13:48:58.287Z,3.70
2022-09-27T13:51:41.046Z,6.93
2022-09-27T13:54:46.200Z,6.00
2022-09-27T13:57:48.504Z,4.68
2022-09-27T14:00:22.345Z,3.75
2022-09-27T14:02:59.732Z,7.82
2022-09-27T14:05:32.994Z,4.90
2022-09-27T14:08:02.385Z,12.10
2022-09-27T14:10:30.567Z,14.10
2022-09-27T14:12:59.062Z,3.17
2022-09-27T14:15:28.261Z,7.35
2022-09-27T14:17:56.461Z,5.90
2022-09-27T14:20:38.769Z,4.57
2022-09-27T14:23:17.517Z,4.72
2022-09-27T14:25:51.135Z,7.97
2022-09-27T14:28:41.306Z,4.22
2022-09-27T14:31:18.345Z,2.10
2022-09-27T14:34:11.758Z,3.87
2022-09-27T14:39:37.660Z,5.78
2022-09-27T14:42:25.083Z,7.82
2022-09-27T14:44:52.776Z,4.13
2022-09-27T14:47:25.339Z,5.72
2022-09-27T14:49:56.743Z,5.38
2022-09-27T14:52:31.440Z,6.18
2022-09-27T14:55:09.990Z,6.07
2022-09-27T14:57:37.278Z,6.68
2022-09-27T15:00:21.511Z,8.82
2022-09-27T15:02:55.449Z,6.10
2022-09-27T15:05:25.749Z,7.57
2022-09-27T15:07:55.699Z,4.07
2022-09-27T15:10:27.209Z,2.67
2022-09-27T15:12:57.876Z,6.35
2022-09-27T15:15:27.324Z,5.82
2022-09-27T15:17:54.107Z,8.70
2022-09-27T15:20:34.992Z,5.15
2022-09-27T15:23:04.854Z,4.63
2022-09-27T15:25:37.524Z,4.75
2022-09-27T15:28:07.182Z,6.77
2022-09-27T15:30:34.781Z,4.07
2022-09-27T15:33:02.589Z,5.90
2022-09-27T15:35:33.226Z,2.80
2022-09-27T15:38:24.914Z,7.22
2022-09-27T15:40:51.733Z,5.25
2022-09-27T15:43:22.938Z,10.75
2022-09-27T15:45:51.549Z,5.00
2022-09-27T15:48:20.144Z,6.18
2022-09-27T15:50:48.412Z,6.80
2022-09-27T15:53:34.178Z,5.40
2022-09-27T15:56:06.606Z,6.68
2022-09-27T15:58:36.408Z,9.67
2022-09-27T16:01:07.725Z,5.68
2022-09-27T16:03:35.561Z,2.35
2022-09-27T16:06:03.871Z,5.75
2022-09-27T16:08:30.946Z,13.15
2022-09-27T16:10:59.511Z,6.90
2022-09-27T16:13:32.668Z,7.60
2022-09-27T16:16:00.273Z,8.77
2022-09-27T16:18:30.896Z,14.68
2022-09-27T16:21:01.313Z,21.20
2022-09-27T16:23:31.459Z,18.17
2022-09-27T16:25:58.821Z,9.50
2022-09-27T16:28:26.628Z,25.75
2022-09-27T16:30:54.470Z,16.00
2022-09-27T16:33:21.556Z,9.57
2022-09-27T16:35:50.266Z,18.52
2022-09-27T16:38:17.870Z,12.43
2022-09-27T16:40:44.948Z,5.57
2022-09-27T16:43:12.304Z,11.27
2022-09-27T16:45:39.129Z,6.25
2022-09-27T16:48:06.047Z,8.73
2022-09-27T16:50:51.905Z,10.88
2022-09-27T16:53:19.604Z,4.40
2022-09-27T16:55:46.599Z,3.28
2022-09-27T16:58:13.818Z,6.38
2022-09-27T17:00:42.070Z,5.80
2022-09-27T17:03:10.483Z,5.20
2022-09-27T17:05:37.680Z,3.50
2022-09-27T17:08:09.569Z,11.18
2022-09-27T17:10:38.771Z,13.90
2022-09-27T17:13:12.110Z,5.53
2022-09-27T17:18:06.718Z,5.50
2022-09-27T17:20:33.898Z,9.75
2022-09-27T17:23:03.728Z,12.18
2022-09-27T17:25:34.543Z,12.85
2022-09-27T17:28:01.602Z,11.98
2022-09-27T17:30:31.953Z,15.75
2022-09-27T17:33:00.207Z,8.77
2022-09-27T17:35:27.213Z,13.88
2022-09-27T17:37:56.864Z,11.20
2022-09-27T17:40:25.072Z,12.75
2022-09-27T17:42:52.794Z,8.75
2022-09-27T17:45:20.053Z,7.25
2022-09-27T17:48:05.264Z,25.88
2022-09-27T17:50:35.109Z,21.27
2022-09-27T17:53:02.459Z,24.60
2022-09-27T17:55:32.645Z,29.15
2022-09-27T17:58:00.175Z,20.33
2022-09-27T18:00:27.600Z,30.50
2022-09-27T18:02:55.265Z,39.25
2022-09-27T18:05:22.918Z,28.83
2022-09-27T18:07:50.032Z,17.23
2022-09-27T18:10:20.042Z,41.28
2022-09-27T18:12:49.295Z,24.10
2022-09-27T18:15:32.170Z,13.85
2022-09-27T18:18:02.733Z,12.20
2022-09-27T18:20:34.362Z,13.45
2022-09-27T18:23:02.009Z,12.05
2022-09-27T18:25:32.045Z,21.00
2022-09-27T18:28:10.429Z,21.88
2022-09-27T18:30:43.718Z,27.30
2022-09-27T18:33:12.333Z,22.25
2022-09-27T18:35:52.029Z,16.02
2022-09-27T18:42:46.174Z,19.02
2022-09-27T18:45:27.767Z,31.90
2022-09-27T18:48:06.897Z,11.82
2022-09-27T18:50:53.558Z,18.40
2022-09-27T18:56:43.342Z,13.15
2022-09-27T18:59:32.812Z,23.88
2022-09-27T19:02:12.199Z,12.30
2022-09-27T19:04:57.294Z,10.88
2022-09-27T19:07:39.543Z,6.72
2022-09-27T19:10:12.577Z,10.15
2022-09-27T19:13:00.701Z,20.35
2022-09-27T19:16:19.348Z,14.60
2022-09-27T19:19:05.676Z,8.65
2022-09-27T19:21:54.720Z,11.05
2022-09-27T19:24:31.093Z,12.63
2022-09-27T19:27:27.511Z,10.25
2022-09-27T19:30:55.761Z,5.15
2022-09-27T19:34:41.897Z,14.80
2022-09-27T19:37:48.693Z,12.25
2022-09-27T19:40:49.737Z,12.98
2022-09-27T19:43:32.150Z,8.13
2022-09-27T19:50:55.223Z,7.30
2022-09-27T19:54:04.512Z,15.45
2022-09-27T19:56:35.683Z,9.85
2022-09-27T19:59:28.852Z,6.57
2022-09-27T20:02:14.462Z,10.07
2022-09-27T20:05:02.391Z,9.57
2022-09-27T20:11:24.257Z,11.13
2022-09-27T20:14:17.088Z,13.75
2022-09-27T20:17:21.881Z,6.88
2022-09-27T20:21:37.355Z,11.38
2022-09-27T20:24:08.860Z,15.57
2022-09-27T20:26:51.112Z,11.60
2022-09-27T20:33:46.735Z,9.88
2022-09-27T20:39:26.348Z,7.68
2022-09-27T20:42:02.160Z,8.65
2022-09-27T20:48:39.949Z,10.40
2022-09-27T20:51:16.404Z,7.30
2022-09-27T20:53:50.048Z,8.30
2022-09-27T20:59:43.579Z,10.65
2022-09-27T21:04:51.963Z,4.03
2022-09-27T21:07:24.210Z,4.03
2022-09-27T21:09:52.675Z,7.35
2022-09-27T21:12:24.444Z,4.40
2022-09-27T21:15:11.115Z,5.45
2022-09-27T21:17:44.826Z,6.60
2022-09-27T21:20:40.415Z,3.25
2022-09-27T21:23:12.355Z,9.88
2022-09-27T21:25:45.942Z,5.20
2022-09-27T21:28:51.424Z,11.65
2022-09-27T21:32:16.949Z,9.80
2022-09-27T21:34:49.205Z,9.07
2022-09-27T21:37:43.975Z,7.65
2022-09-27T21:40:24.612Z,3.22
2022-09-27T21:43:50.988Z,12.10
2022-09-27T21:51:26.996Z,14.02
2022-09-27T21:59:03.896Z,10.90
2022-09-27T22:01:33.343Z,17.05
2022-09-27T22:04:06.538Z,6.43
2022-09-27T22:06:39.965Z,6.97
2022-09-27T22:13:05.477Z,9.75
2022-09-27T22:15:40.891Z,4.25
2022-09-27T22:18:12.912Z,8.13
2022-09-27T22:20:40.553Z,5.32
2022-09-27T22:23:14.854Z,4.80
2022-09-27T22:26:41.998Z,5.55
2022-09-27T22:29:18.483Z,12.02
2022-09-27T22:32:11.427Z,7.05
2022-09-27T22:35:21.868Z,7.65
2022-09-27T22:38:51.862Z,6.35
2022-09-27T22:41:22.970Z,5.90
2022-09-27T22:44:14.711Z,12.45
2022-09-27T22:46:44.101Z,13.20
2022-09-27T22:49:11.963Z,8.55
2022-09-27T22:51:43.311Z,6.93
2022-09-27T22:54:13.041Z,10.60
2022-09-27T22:56:40.027Z,8.38
2022-09-27T22:59:08.087Z,5.80
2022-09-27T23:01:41.351Z,7.97
2022-09-27T23:04:09.826Z,7.97
2022-09-27T23:07:02.552Z,8.30
2022-09-27T23:11:11.216Z,8.15
2022-09-27T23:14:28.886Z,5.97
2022-09-27T23:17:47.718Z,14.93
2022-09-27T23:28:26.555Z,10.88
2022-09-27T23:30:54.543Z,7.53
2022-09-27T23:33:22.559Z,9.50
2022-09-27T23:36:15.852Z,9.93
2022-09-27T23:38:52.468Z,6.82
2022-09-27T23:41:34.465Z,10.45
2022-09-27T23:47:57.976Z,13.32
2022-09-27T23:54:20.761Z,9.65
2022-09-27T23:56:48.051Z,10.23
2022-09-27T23:59:15.242Z,10.85
